createdAt,value
2018-07-12T00:01:52.570Z,9.17
2018-07-12T00:04:19.858Z,4.97
2018-07-12T00:06:47.209Z,6.47
2018-07-12T00:09:14.495Z,4.87
2018-07-12T00:11:41.818Z,4.50
2018-07-12T00:14:09.111Z,6.13
2018-07-12T00:16:36.446Z,6.10
2018-07-12T00:19:03.747Z,4.77
2018-07-12T00:21:31.058Z,6.10
2018-07-12T00:23:58.342Z,4.33
2018-07-12T00:26:25.655Z,5.20
2018-07-12T00:28:52.926Z,5.20
2018-07-12T00:31:20.250Z,4.73
2018-07-12T00:33:47.602Z,4.40
2018-07-12T00:36:14.932Z,4.43
2018-07-12T00:38:42.213Z,4.53
2018-07-12T00:41:09.532Z,5.20
2018-07-12T00:43:37.086Z,6.87
2018-07-12T00:46:04.759Z,6.23
2018-07-12T00:48:32.289Z,5.43
2018-07-12T00:50:59.630Z,5.07
2018-07-12T00:53:26.956Z,4.57
2018-07-12T00:55:54.282Z,5.67
2018-07-12T00:58:21.565Z,5.43
2018-07-12T01:00:48.893Z,7.37
2018-07-12T01:03:16.171Z,5.57
2018-07-12T01:05:43.474Z,6.17
2018-07-12T01:08:10.774Z,5.33
2018-07-12T01:10:38.091Z,5.93
2018-07-12T01:13:05.389Z,6.93
2018-07-12T01:15:32.687Z,5.93
2018-07-12T01:17:59.965Z,6.43
2018-07-12T01:20:27.271Z,6.08
2018-07-12T01:22:54.554Z,7.50
2018-07-12T01:25:22.007Z,6.30
2018-07-12T01:27:49.321Z,7.43
2018-07-12T01:30:16.628Z,9.63
2018-07-12T01:32:43.930Z,8.90
2018-07-12T01:35:11.525Z,7.83
2018-07-12T01:37:38.808Z,8.13
2018-07-12T01:40:06.125Z,8.17
2018-07-12T01:42:33.476Z,10.10
2018-07-12T01:45:00.753Z,10.93
2018-07-12T01:47:28.056Z,8.63
2018-07-12T01:49:55.341Z,9.33
2018-07-12T01:52:22.663Z,6.22
2018-07-12T01:54:49.978Z,7.83
2018-07-12T01:57:17.294Z,5.37
2018-07-12T01:59:44.558Z,7.97
2018-07-12T02:02:11.901Z,6.63
2018-07-12T02:04:39.194Z,8.33
2018-07-12T02:07:06.497Z,6.70
2018-07-12T02:09:33.825Z,7.10
2018-07-12T02:12:01.129Z,9.30
2018-07-12T02:14:28.434Z,8.00
2018-07-12T02:16:55.813Z,11.80
2018-07-12T02:19:23.366Z,9.80
2018-07-12T02:21:50.723Z,9.67
2018-07-12T02:24:17.986Z,9.27
2018-07-12T02:26:45.304Z,10.23
2018-07-12T02:29:12.848Z,8.67
2018-07-12T02:31:40.190Z,11.57
2018-07-12T02:34:07.473Z,11.83
2018-07-12T02:36:34.815Z,10.60
2018-07-12T02:39:02.094Z,11.70
2018-07-12T02:41:29.418Z,11.10
2018-07-12T02:43:56.707Z,11.93
2018-07-12T02:46:24.099Z,11.17
2018-07-12T02:48:51.387Z,10.40
2018-07-12T02:51:18.722Z,11.07
2018-07-12T02:53:45.982Z,9.83
2018-07-12T02:56:13.275Z,10.30
2018-07-12T02:58:40.601Z,9.73
2018-07-12T03:01:07.959Z,11.53
2018-07-12T03:03:35.238Z,10.53
2018-07-12T03:06:02.570Z,9.20
2018-07-12T03:08:29.842Z,9.80
2018-07-12T03:10:57.154Z,9.23
2018-07-12T03:13:24.479Z,13.00
2018-07-12T03:15:51.752Z,12.33
2018-07-12T03:18:19.048Z,9.43
2018-07-12T03:20:46.640Z,11.20
2018-07-12T03:23:13.979Z,9.83
2018-07-12T03:25:41.254Z,10.17
2018-07-12T03:28:08.551Z,12.87
2018-07-12T03:30:35.834Z,12.13
2018-07-12T03:33:03.190Z,11.80
2018-07-12T03:35:30.643Z,11.90
2018-07-12T03:37:57.944Z,11.33
2018-07-12T03:40:25.219Z,11.40
2018-07-12T03:42:52.557Z,10.83
2018-07-12T03:45:19.837Z,11.67
2018-07-12T03:47:47.419Z,10.90
2018-07-12T03:50:14.717Z,13.93
2018-07-12T03:52:42.032Z,12.07
2018-07-12T03:55:09.609Z,13.87
2018-07-12T03:57:37.232Z,11.33
2018-07-12T04:00:04.512Z,11.73
2018-07-12T04:02:31.843Z,11.40
2018-07-12T04:04:59.175Z,10.77
2018-07-12T04:07:26.484Z,10.53
2018-07-12T04:09:53.833Z,10.07
2018-07-12T04:12:21.266Z,10.57
2018-07-12T04:14:48.537Z,8.93
2018-07-12T04:17:21.896Z,8.97
2018-07-12T04:19:49.167Z,12.33
2018-07-12T04:22:16.475Z,12.57
2018-07-12T04:24:43.791Z,13.37
2018-07-12T04:27:11.105Z,10.57
2018-07-12T04:29:38.398Z,11.60
2018-07-12T04:32:05.997Z,11.10
2018-07-12T04:34:33.319Z,14.27
2018-07-12T04:37:00.639Z,12.30
2018-07-12T04:39:27.922Z,13.67
2018-07-12T04:41:55.615Z,13.13
2018-07-12T04:44:23.162Z,12.43
2018-07-12T04:46:50.459Z,11.60
2018-07-12T04:49:18.055Z,12.83
2018-07-12T04:51:45.424Z,13.63
2018-07-12T04:54:12.719Z,11.90
2018-07-12T04:56:40.075Z,13.90
2018-07-12T04:59:07.519Z,11.97
2018-07-12T05:01:34.938Z,13.13
2018-07-12T05:04:02.255Z,14.60
2018-07-12T05:06:29.532Z,12.20
2018-07-12T05:08:56.853Z,12.40
2018-07-12T05:11:24.514Z,12.60
2018-07-12T05:13:52.622Z,13.93
2018-07-12T05:16:20.066Z,11.20
2018-07-12T05:18:47.379Z,12.57
2018-07-12T05:21:14.675Z,15.25
2018-07-12T05:23:42.007Z,12.73
2018-07-12T05:26:09.324Z,12.80
2018-07-12T05:28:36.982Z,14.80
2018-07-12T05:31:04.291Z,13.90
2018-07-12T05:33:31.608Z,12.73
2018-07-12T05:36:00.048Z,12.58
2018-07-12T05:38:28.514Z,11.70
2018-07-12T05:40:56.958Z,11.33
2018-07-12T05:43:25.361Z,12.20
2018-07-12T05:45:53.774Z,11.93
2018-07-12T05:48:22.257Z,14.18
2018-07-12T05:50:50.788Z,15.00
2018-07-12T05:53:20.140Z,12.68
2018-07-12T05:55:48.227Z,11.88
2018-07-12T05:58:16.762Z,11.55
2018-07-12T06:00:45.167Z,10.88
2018-07-12T06:03:13.618Z,10.93
2018-07-12T06:05:42.042Z,11.25
2018-07-12T06:08:10.434Z,14.28
2018-07-12T06:10:38.770Z,10.50
2018-07-12T06:13:07.205Z,8.65
2018-07-12T06:15:35.571Z,10.75
2018-07-12T06:18:04.022Z,10.50
2018-07-12T06:20:32.082Z,7.70
2018-07-12T06:23:00.484Z,8.15
2018-07-12T06:25:28.854Z,9.68
2018-07-12T06:27:57.274Z,7.53
2018-07-12T06:30:25.700Z,8.05
2018-07-12T06:32:54.094Z,6.42
2018-07-12T06:35:22.502Z,5.85
2018-07-12T06:37:51.383Z,7.95
2018-07-12T06:40:19.825Z,6.75
2018-07-12T06:42:48.175Z,6.62
2018-07-12T06:45:16.577Z,6.85
2018-07-12T06:47:44.981Z,6.95
2018-07-12T06:50:13.416Z,7.33
2018-07-12T06:52:41.912Z,7.35
2018-07-12T06:55:10.295Z,6.85
2018-07-12T06:57:38.715Z,5.00
2018-07-12T07:00:07.190Z,6.17
2018-07-12T07:02:35.586Z,7.08
2018-07-12T07:05:04.469Z,7.78
2018-07-12T07:07:32.968Z,8.20
2018-07-12T07:10:01.437Z,7.53
2018-07-12T07:12:30.736Z,7.28
2018-07-12T07:14:59.165Z,5.72
2018-07-12T07:17:27.608Z,5.40
2018-07-12T07:19:56.022Z,6.90
2018-07-12T07:22:24.422Z,6.28
2018-07-12T07:24:53.995Z,6.08
2018-07-12T07:27:22.430Z,5.40
2018-07-12T07:29:51.651Z,5.10
2018-07-12T07:32:20.196Z,4.65
2018-07-12T07:34:48.604Z,6.15
2018-07-12T07:37:17.526Z,4.67
2018-07-12T07:39:46.011Z,3.75
2018-07-12T07:42:14.410Z,6.58
2018-07-12T07:44:42.938Z,5.55
2018-07-12T07:47:11.145Z,5.00
2018-07-12T07:49:39.559Z,5.53
2018-07-12T07:52:07.983Z,5.83
2018-07-12T07:54:36.402Z,6.05
2018-07-12T07:57:05.168Z,5.78
2018-07-12T07:59:33.687Z,5.50
2018-07-12T08:02:01.769Z,5.12
2018-07-12T08:04:30.295Z,6.50
2018-07-12T08:06:58.946Z,4.70
2018-07-12T08:09:27.551Z,4.22
2018-07-12T08:11:56.012Z,3.62
2018-07-12T08:14:24.478Z,6.08
2018-07-12T08:16:52.894Z,4.97
2018-07-12T08:19:21.243Z,4.55
2018-07-12T08:21:49.340Z,5.28
2018-07-12T08:24:17.692Z,5.58
2018-07-12T08:26:46.082Z,3.87
2018-07-12T08:29:14.583Z,4.72
2018-07-12T08:31:43.063Z,4.92
2018-07-12T08:34:11.462Z,4.67
2018-07-12T08:36:39.873Z,4.95
2018-07-12T08:39:08.326Z,4.50
2018-07-12T08:41:36.719Z,3.72
2018-07-12T08:44:05.199Z,5.40
2018-07-12T08:46:33.567Z,4.80
2018-07-12T08:49:02.479Z,5.53
2018-07-12T08:51:30.891Z,3.37
2018-07-12T08:53:59.271Z,4.10
2018-07-12T08:56:27.672Z,5.08
2018-07-12T08:58:56.087Z,4.72
2018-07-12T09:01:24.514Z,5.10
2018-07-12T09:03:52.638Z,4.85
2018-07-12T09:06:21.121Z,4.47
2018-07-12T09:08:49.498Z,4.37
2018-07-12T09:11:17.976Z,3.70
2018-07-12T09:13:46.196Z,4.40
2018-07-12T09:16:14.602Z,4.30
2018-07-12T09:18:43.210Z,4.62
2018-07-12T09:21:11.707Z,4.45
2018-07-12T09:23:40.230Z,5.53
2018-07-12T09:26:09.143Z,4.58
2018-07-12T09:28:37.619Z,4.67
2018-07-12T09:31:06.096Z,4.75
2018-07-12T09:33:34.540Z,5.67
2018-07-12T09:36:02.978Z,3.95
2018-07-12T09:38:45.421Z,5.12
2018-07-12T09:41:13.855Z,4.55
2018-07-12T09:43:43.406Z,4.50
2018-07-12T09:46:11.842Z,5.90
2018-07-12T09:48:41.644Z,3.75
2018-07-12T09:51:11.300Z,6.25
2018-07-12T09:53:40.690Z,5.72
2018-07-12T09:56:09.276Z,5.03
2018-07-12T09:58:37.682Z,4.70
2018-07-12T10:01:11.617Z,5.37
2018-07-12T10:03:45.211Z,5.17
2018-07-12T10:06:18.957Z,7.80
2018-07-12T10:08:48.901Z,6.28
2018-07-12T10:11:22.847Z,4.00
2018-07-12T10:13:56.636Z,4.40
2018-07-12T10:16:30.672Z,3.77
2018-07-12T10:18:59.303Z,5.62
2018-07-12T10:21:27.754Z,3.60
2018-07-12T10:23:56.103Z,3.87
2018-07-12T10:26:24.676Z,4.20
2018-07-12T10:28:53.086Z,6.37
2018-07-12T10:31:21.668Z,8.90
2018-07-12T10:33:50.206Z,5.35
2018-07-12T10:36:18.409Z,5.20
2018-07-12T10:38:46.847Z,5.90
2018-07-12T10:41:15.272Z,3.95
2018-07-12T10:43:43.697Z,3.80
2018-07-12T10:46:12.208Z,10.88
2018-07-12T10:48:40.649Z,6.37
2018-07-12T10:51:09.121Z,7.55
2018-07-12T10:53:37.516Z,6.78
2018-07-12T10:56:06.329Z,5.35
2018-07-12T10:58:34.749Z,13.88
2018-07-12T11:01:03.198Z,8.90
2018-07-12T11:03:31.577Z,7.35
2018-07-12T11:05:59.996Z,6.60
2018-07-12T11:08:28.085Z,5.67
2018-07-12T11:10:56.240Z,3.80
2018-07-12T11:13:36.018Z,2.12
2018-07-12T11:16:04.634Z,1.92
2018-07-12T11:18:33.064Z,4.10
2018-07-12T11:21:01.486Z,3.37
2018-07-12T11:23:29.930Z,2.30
2018-07-12T11:25:58.323Z,3.02
2018-07-12T11:28:26.706Z,5.78
2018-07-12T11:30:55.188Z,2.95
2018-07-12T11:33:48.894Z,4.80
2018-07-12T11:36:17.347Z,3.72
2018-07-12T11:38:46.438Z,3.33
2018-07-12T11:41:15.060Z,5.22
2018-07-12T11:43:43.565Z,4.85
2018-07-12T11:46:13.014Z,3.42
2018-07-12T11:48:42.146Z,4.45
2018-07-12T11:51:11.050Z,2.65
2018-07-12T11:53:39.449Z,2.58
2018-07-12T11:56:07.902Z,3.70
2018-07-12T11:58:36.296Z,7.92
2018-07-12T12:01:04.884Z,8.20
2018-07-12T12:03:33.539Z,2.83
2018-07-12T12:06:02.014Z,2.02
2018-07-12T12:08:30.491Z,4.33
2018-07-12T12:10:58.963Z,3.52
2018-07-12T12:13:27.355Z,6.50
2018-07-12T12:15:55.791Z,5.20
2018-07-12T12:18:24.279Z,2.83
2018-07-12T12:20:52.722Z,2.98
2018-07-12T12:23:21.203Z,3.08
2018-07-12T12:25:49.603Z,1.80
2018-07-12T12:28:18.031Z,1.10
2018-07-12T12:30:46.462Z,1.80
2018-07-12T12:33:14.920Z,1.87
2018-07-12T12:35:43.417Z,2.17
2018-07-12T12:38:11.800Z,1.30
2018-07-12T12:40:40.278Z,2.90
2018-07-12T12:43:08.718Z,2.00
2018-07-12T12:45:37.290Z,1.70
2018-07-12T12:48:05.664Z,1.30
2018-07-12T12:50:34.070Z,1.50
2018-07-12T12:53:02.523Z,1.25
2018-07-12T12:55:30.930Z,1.47
2018-07-12T12:57:59.323Z,1.40
2018-07-12T13:00:27.850Z,2.05
2018-07-12T13:02:56.242Z,1.60
2018-07-12T13:05:24.684Z,1.10
2018-07-12T13:07:53.049Z,2.58
2018-07-12T13:10:21.481Z,0.90
2018-07-12T13:12:49.917Z,2.45
2018-07-12T13:15:18.303Z,0.90
2018-07-12T13:17:46.747Z,1.42
2018-07-12T13:20:15.209Z,1.25
2018-07-12T13:22:43.608Z,1.50
2018-07-12T13:25:12.013Z,1.40
2018-07-12T13:27:40.514Z,1.20
2018-07-12T13:30:08.597Z,7.53
2018-07-12T13:32:37.026Z,10.30
2018-07-12T13:35:05.410Z,8.70
2018-07-12T13:37:33.840Z,3.52
2018-07-12T13:40:02.298Z,3.60
2018-07-12T13:42:30.733Z,7.70
2018-07-12T13:44:59.188Z,3.37
2018-07-12T13:47:27.608Z,2.77
2018-07-12T13:49:55.991Z,2.75
2018-07-12T13:52:24.394Z,2.02
2018-07-12T13:54:52.749Z,2.40
2018-07-12T13:57:21.192Z,4.42
2018-07-12T13:59:49.547Z,2.05
2018-07-12T14:02:18.025Z,1.45
2018-07-12T14:04:46.506Z,2.20
2018-07-12T14:07:14.865Z,2.12
2018-07-12T14:09:43.251Z,4.75
2018-07-12T14:12:11.611Z,1.50
2018-07-12T14:14:40.001Z,1.10
2018-07-12T14:17:08.428Z,3.33
2018-07-12T14:19:36.853Z,1.55
2018-07-12T14:22:05.249Z,1.60
2018-07-12T14:24:33.647Z,1.98
2018-07-12T14:27:02.037Z,2.25
2018-07-12T14:29:30.426Z,1.70
2018-07-12T14:31:58.843Z,1.90
2018-07-12T14:34:27.273Z,2.25
2018-07-12T14:36:55.646Z,1.90
2018-07-12T14:39:24.158Z,2.10
2018-07-12T14:41:52.639Z,2.17
2018-07-12T14:44:21.084Z,1.00
2018-07-12T14:46:49.535Z,1.20
2018-07-12T14:49:17.964Z,1.52
2018-07-12T14:51:46.328Z,2.22
2018-07-12T14:54:15.392Z,1.10
2018-07-12T14:56:43.875Z,2.20
2018-07-12T14:59:12.286Z,2.08
2018-07-12T15:01:40.661Z,1.95
2018-07-12T15:04:09.167Z,2.33
2018-07-12T15:06:37.634Z,1.55
2018-07-12T15:09:07.698Z,1.40
2018-07-12T15:11:36.076Z,1.40
2018-07-12T15:14:04.603Z,1.80
2018-07-12T15:16:33.015Z,1.70
2018-07-12T15:19:01.475Z,2.00
2018-07-12T15:21:29.953Z,1.98
2018-07-12T15:23:58.363Z,1.70
2018-07-12T15:26:26.793Z,7.28
2018-07-12T15:28:55.176Z,9.03
2018-07-12T15:31:23.574Z,2.67
2018-07-12T15:33:52.100Z,2.52
2018-07-12T15:36:20.553Z,3.00
2018-07-12T15:38:48.960Z,2.98
2018-07-12T15:41:17.405Z,2.40
2018-07-12T15:43:45.876Z,2.02
2018-07-12T15:46:14.365Z,2.20
2018-07-12T15:48:42.809Z,1.90
2018-07-12T15:51:11.221Z,2.08
2018-07-12T15:53:39.651Z,2.08
2018-07-12T15:56:08.132Z,2.30
2018-07-12T15:58:36.538Z,2.02
2018-07-12T16:01:04.974Z,2.27
2018-07-12T16:03:33.411Z,3.00
2018-07-12T16:06:01.848Z,2.20
2018-07-12T16:08:30.352Z,2.00
2018-07-12T16:10:58.810Z,2.85
2018-07-12T16:13:27.429Z,3.45
2018-07-12T16:15:55.954Z,2.27
2018-07-12T16:18:24.359Z,3.87
2018-07-12T16:20:52.749Z,2.10
2018-07-12T16:23:21.120Z,2.05
2018-07-12T16:25:49.600Z,2.50
2018-07-12T16:28:18.115Z,2.75
2018-07-12T16:30:46.522Z,2.00
2018-07-12T16:33:15.034Z,3.85
2018-07-12T16:35:43.442Z,2.15
2018-07-12T16:38:11.918Z,2.40
2018-07-12T16:40:40.410Z,1.85
2018-07-12T16:43:08.878Z,1.82
2018-07-12T16:45:37.461Z,2.40
2018-07-12T16:48:06.012Z,1.77
2018-07-12T16:50:34.463Z,1.77
2018-07-12T16:53:02.979Z,1.82
2018-07-12T16:55:31.606Z,1.70
2018-07-12T16:58:00.081Z,2.87
2018-07-12T17:00:28.431Z,1.90
2018-07-12T17:02:56.813Z,1.40
2018-07-12T17:05:25.223Z,1.85
2018-07-12T17:07:53.671Z,1.80
2018-07-12T17:10:22.000Z,1.50
2018-07-12T17:12:50.546Z,1.50
2018-07-12T17:15:21.448Z,1.80
2018-07-12T17:17:50.032Z,1.42
2018-07-12T17:20:18.395Z,2.30
2018-07-12T17:22:46.817Z,2.27
2018-07-12T17:25:15.241Z,2.87
2018-07-12T17:27:43.650Z,3.15
2018-07-12T17:30:12.135Z,7.70
2018-07-12T17:32:40.694Z,12.43
2018-07-12T17:35:09.098Z,15.88
2018-07-12T17:37:37.589Z,17.90
2018-07-12T17:40:06.199Z,9.50
2018-07-12T17:42:34.815Z,14.23
2018-07-12T17:45:03.243Z,17.12
2018-07-12T17:47:31.686Z,17.52
2018-07-12T17:50:00.150Z,14.25
2018-07-12T17:52:28.564Z,6.85
2018-07-12T17:54:56.975Z,5.28
2018-07-12T17:57:25.409Z,6.60
2018-07-12T17:59:53.814Z,6.10
2018-07-12T18:02:22.307Z,12.33
2018-07-12T18:04:50.751Z,13.25
2018-07-12T18:07:19.201Z,8.83
2018-07-12T18:09:47.702Z,7.08
2018-07-12T18:12:16.150Z,16.85
2018-07-12T18:14:44.584Z,11.45
2018-07-12T18:17:12.959Z,4.67
2018-07-12T18:19:41.343Z,5.37
2018-07-12T18:22:09.755Z,4.90
2018-07-12T18:24:38.140Z,10.30
2018-07-12T18:27:06.519Z,17.77
2018-07-12T18:29:34.987Z,17.52
2018-07-12T18:32:03.370Z,17.60
2018-07-12T18:34:38.608Z,28.98
2018-07-12T18:37:06.999Z,25.82
2018-07-12T18:39:35.421Z,20.37
2018-07-12T18:42:03.900Z,16.73
2018-07-12T18:44:32.379Z,14.03
2018-07-12T18:47:01.594Z,19.45
2018-07-12T18:49:30.027Z,14.50
2018-07-12T18:51:58.474Z,13.65
2018-07-12T18:54:26.931Z,26.05
2018-07-12T18:56:55.348Z,14.45
2018-07-12T18:59:23.930Z,8.73
2018-07-12T19:01:52.370Z,9.38
2018-07-12T19:04:20.953Z,8.75
2018-07-12T19:06:49.404Z,5.15
2018-07-12T19:09:17.939Z,6.08
2018-07-12T19:11:46.567Z,5.83
2018-07-12T19:14:15.030Z,6.62
2018-07-12T19:16:43.643Z,8.73
2018-07-12T19:19:12.067Z,8.85
2018-07-12T19:21:40.484Z,6.08
2018-07-12T19:24:08.965Z,6.45
2018-07-12T19:26:37.388Z,18.10
2018-07-12T19:29:05.826Z,17.95
2018-07-12T19:31:34.235Z,11.85
2018-07-12T19:34:02.690Z,8.40
2018-07-12T19:36:31.071Z,17.30
2018-07-12T19:39:00.090Z,41.83
2018-07-12T19:41:28.640Z,29.42
2018-07-12T19:43:57.104Z,27.10
2018-07-12T19:46:26.488Z,12.53
2018-07-12T19:48:55.045Z,8.30
2018-07-12T19:51:23.439Z,26.12
2018-07-12T19:53:51.867Z,19.73
2018-07-12T19:56:20.284Z,15.28
2018-07-12T19:58:49.020Z,12.85
2018-07-12T20:01:17.757Z,14.50
2018-07-12T20:03:46.213Z,12.90
2018-07-12T20:06:14.753Z,35.13
2018-07-12T20:08:43.089Z,29.60
2018-07-12T20:11:11.464Z,18.17
2018-07-12T20:13:39.835Z,13.55
2018-07-12T20:16:08.232Z,8.35
2018-07-12T20:18:37.898Z,8.33
2018-07-12T20:21:07.548Z,10.53
2018-07-12T20:23:37.305Z,14.00
2018-07-12T20:26:06.696Z,15.75
2018-07-12T20:28:36.345Z,14.78
2018-07-12T20:31:05.105Z,9.73
2018-07-12T20:33:33.491Z,6.05
2018-07-12T20:36:01.939Z,4.20
2018-07-12T20:38:30.404Z,3.10
2018-07-12T20:40:58.971Z,2.62
2018-07-12T20:43:27.406Z,3.00
2018-07-12T20:45:55.894Z,5.83
2018-07-12T20:48:24.257Z,8.55
2018-07-12T20:50:52.782Z,16.27
2018-07-12T20:53:21.157Z,21.23
2018-07-12T20:55:49.689Z,18.17
2018-07-12T20:58:18.234Z,14.25
2018-07-12T21:00:46.679Z,14.78
2018-07-12T21:03:15.060Z,12.47
2018-07-12T21:05:43.458Z,12.63
2018-07-12T21:08:12.142Z,9.80
2018-07-12T21:10:40.664Z,8.35
2018-07-12T21:13:09.106Z,5.97
2018-07-12T21:15:37.490Z,5.17
2018-07-12T21:18:07.408Z,5.22
2018-07-12T21:20:36.091Z,4.12
2018-07-12T21:23:04.494Z,4.60
2018-07-12T21:25:32.878Z,4.45
2018-07-12T21:28:01.125Z,5.55
2018-07-12T21:30:29.696Z,6.55
2018-07-12T21:32:58.081Z,6.85
2018-07-12T21:35:26.460Z,6.10
2018-07-12T21:37:54.818Z,6.40
2018-07-12T21:40:23.221Z,6.65
2018-07-12T21:42:51.561Z,8.83
2018-07-12T21:45:19.934Z,6.37
2018-07-12T21:47:48.278Z,5.92
2018-07-12T21:50:17.756Z,5.30
2018-07-12T21:52:46.146Z,5.75
2018-07-12T21:55:14.535Z,7.33
2018-07-12T21:57:42.891Z,6.42
2018-07-12T22:00:11.458Z,8.53
2018-07-12T22:02:39.868Z,7.05
2018-07-12T22:05:08.322Z,8.85
2018-07-12T22:08:30.358Z,9.18
2018-07-12T22:11:01.034Z,4.90
2018-07-12T22:13:30.207Z,4.67
2018-07-12T22:15:58.617Z,5.53
2018-07-12T22:18:26.990Z,5.00
2018-07-12T22:20:55.382Z,6.28
2018-07-12T22:23:23.788Z,4.33
2018-07-12T22:25:52.194Z,4.70
2018-07-12T22:28:20.690Z,4.25
2018-07-12T22:30:49.101Z,4.00
2018-07-12T22:33:17.582Z,3.47
2018-07-12T22:35:45.976Z,3.10
2018-07-12T22:38:14.393Z,4.17
2018-07-12T22:40:42.864Z,3.92
2018-07-12T22:43:11.334Z,3.70
2018-07-12T22:45:39.740Z,4.20
2018-07-12T22:48:08.266Z,4.20
2018-07-12T22:50:36.695Z,4.00
2018-07-12T22:53:05.542Z,3.62
2018-07-12T22:55:33.922Z,3.85
2018-07-12T22:58:02.318Z,3.60
2018-07-12T23:00:30.702Z,3.62
2018-07-12T23:02:59.238Z,3.42
2018-07-12T23:05:27.349Z,4.83
2018-07-12T23:07:55.860Z,4.25
2018-07-12T23:10:24.283Z,2.92
2018-07-12T23:12:52.653Z,3.72
2018-07-12T23:15:21.078Z,4.30
2018-07-12T23:17:49.475Z,5.12
2018-07-12T23:20:17.832Z,5.67
2018-07-12T23:22:46.264Z,5.45
2018-07-12T23:25:14.634Z,5.85
2018-07-12T23:27:43.068Z,7.17
2018-07-12T23:30:11.454Z,7.15
2018-07-12T23:32:39.896Z,5.70
2018-07-12T23:35:08.316Z,5.95
2018-07-12T23:37:36.761Z,5.20
2018-07-12T23:40:05.137Z,5.33
2018-07-12T23:42:33.661Z,6.15
2018-07-12T23:45:02.064Z,6.78
2018-07-12T23:47:30.508Z,7.72
2018-07-12T23:49:58.870Z,7.08
2018-07-12T23:52:27.312Z,6.47
2018-07-12T23:54:55.672Z,6.08
2018-07-12T23:57:24.065Z,5.80
2018-07-12T23:59:52.125Z,9.25
